createdAt,value
2022-10-16T00:00:04.730Z,0.77
2022-10-16T00:02:32.391Z,0.80
2022-10-16T00:05:00.502Z,0.80
2022-10-16T00:07:28.857Z,0.80
2022-10-16T00:09:56.237Z,0.80
2022-10-16T00:12:23.771Z,0.80
2022-10-16T00:14:51.284Z,1.00
2022-10-16T00:17:18.553Z,0.80
2022-10-16T00:19:45.900Z,0.83
2022-10-16T00:22:31.962Z,1.00
2022-10-16T00:24:59.231Z,0.80
2022-10-16T00:27:26.501Z,0.90
2022-10-16T00:29:54.323Z,0.90
2022-10-16T00:32:21.633Z,0.90
2022-10-16T00:34:48.920Z,1.00
2022-10-16T00:37:16.189Z,0.93
2022-10-16T00:39:43.469Z,0.80
2022-10-16T00:42:16.202Z,0.90
2022-10-16T00:44:46.515Z,0.90
2022-10-16T00:47:17.479Z,1.00
2022-10-16T00:49:44.802Z,0.80
2022-10-16T00:52:12.276Z,1.00
2022-10-16T00:54:39.594Z,0.80
2022-10-16T00:57:07.775Z,0.90
2022-10-16T00:59:40.006Z,0.90
2022-10-16T01:02:09.775Z,0.70
2022-10-16T01:04:38.810Z,0.80
2022-10-16T01:07:08.850Z,0.80
2022-10-16T01:09:43.858Z,0.90
2022-10-16T01:12:14.066Z,0.70
2022-10-16T01:14:56.354Z,0.60
2022-10-16T01:17:27.239Z,0.70
2022-10-16T01:20:02.483Z,0.63
2022-10-16T01:22:35.235Z,0.90
2022-10-16T01:25:07.025Z,0.70
2022-10-16T01:27:35.661Z,1.10
2022-10-16T01:30:02.914Z,0.70
2022-10-16T01:32:34.146Z,0.60
2022-10-16T01:35:06.842Z,0.70
2022-10-16T01:37:37.169Z,0.70
2022-10-16T01:40:06.064Z,0.80
2022-10-16T01:42:37.056Z,0.80
2022-10-16T01:45:26.493Z,0.83
2022-10-16T01:48:10.519Z,0.70
2022-10-16T01:50:40.920Z,0.60
2022-10-16T01:53:08.981Z,0.70
2022-10-16T01:55:38.511Z,0.80
2022-10-16T01:58:07.399Z,0.77
2022-10-16T02:00:35.631Z,0.80
2022-10-16T02:03:03.311Z,0.70
2022-10-16T02:05:33.086Z,0.83
2022-10-16T02:08:03.171Z,0.70
2022-10-16T02:10:33.470Z,0.80
2022-10-16T02:13:10.069Z,0.60
2022-10-16T02:15:37.369Z,0.90
2022-10-16T02:18:08.254Z,0.80
2022-10-16T02:20:39.543Z,0.80
2022-10-16T02:23:09.467Z,0.90
2022-10-16T02:25:39.187Z,0.80
2022-10-16T02:28:13.975Z,0.73
2022-10-16T02:30:43.099Z,0.80
2022-10-16T02:33:11.859Z,0.80
2022-10-16T02:35:39.599Z,0.70
2022-10-16T02:38:07.114Z,0.73
2022-10-16T02:40:35.012Z,0.70
2022-10-16T02:43:04.558Z,0.80
2022-10-16T02:45:32.399Z,0.70
2022-10-16T02:47:59.749Z,0.70
2022-10-16T02:50:27.045Z,0.77
2022-10-16T02:52:54.326Z,0.80
2022-10-16T02:55:21.635Z,0.97
2022-10-16T02:57:49.017Z,0.60
2022-10-16T03:00:17.455Z,0.70
2022-10-16T03:02:44.975Z,0.80
2022-10-16T03:05:12.629Z,0.80
2022-10-16T03:07:40.019Z,1.03
2022-10-16T03:10:07.582Z,0.80
2022-10-16T03:12:35.143Z,0.77
2022-10-16T03:15:02.673Z,0.87
2022-10-16T03:17:29.994Z,1.07
2022-10-16T03:19:57.249Z,0.93
2022-10-16T03:22:24.520Z,0.90
2022-10-16T03:24:51.817Z,0.67
2022-10-16T03:27:19.141Z,0.87
2022-10-16T03:29:46.540Z,0.90
2022-10-16T03:32:13.870Z,0.80
2022-10-16T03:34:41.127Z,0.80
2022-10-16T03:37:08.590Z,0.87
2022-10-16T03:39:35.855Z,1.07
2022-10-16T03:42:03.608Z,0.90
2022-10-16T03:44:30.859Z,0.77
2022-10-16T03:46:58.123Z,0.90
2022-10-16T03:49:25.468Z,0.80
2022-10-16T03:51:52.733Z,0.80
2022-10-16T03:54:20.259Z,0.90
2022-10-16T03:56:47.546Z,0.70
2022-10-16T03:59:14.856Z,0.73
2022-10-16T04:01:42.293Z,1.03
2022-10-16T04:04:09.556Z,0.83
2022-10-16T04:06:36.871Z,0.90
2022-10-16T04:09:04.532Z,0.80
2022-10-16T04:11:31.849Z,0.80
2022-10-16T04:13:59.178Z,0.90
2022-10-16T04:16:26.634Z,0.90
2022-10-16T04:18:53.954Z,0.90
2022-10-16T04:21:21.307Z,0.90
2022-10-16T04:23:48.622Z,1.00
2022-10-16T04:26:15.941Z,0.90
2022-10-16T04:28:43.267Z,1.37
2022-10-16T04:31:10.635Z,0.80
2022-10-16T04:33:37.888Z,0.87
2022-10-16T04:36:05.297Z,0.87
2022-10-16T04:38:32.821Z,0.80
2022-10-16T04:41:00.903Z,0.90
2022-10-16T04:45:57.390Z,0.90
2022-10-16T04:48:24.800Z,0.87
2022-10-16T04:50:54.522Z,0.90
2022-10-16T04:53:22.595Z,0.93
2022-10-16T04:55:49.871Z,0.80
2022-10-16T04:58:17.187Z,0.73
2022-10-16T05:00:44.467Z,0.80
2022-10-16T05:03:12.094Z,0.80
2022-10-16T05:05:43.727Z,0.80
2022-10-16T05:08:11.020Z,0.93
2022-10-16T05:10:38.308Z,0.80
2022-10-16T05:13:05.576Z,0.97
2022-10-16T05:15:34.070Z,0.90
2022-10-16T05:18:01.495Z,0.80
2022-10-16T05:20:28.827Z,0.87
2022-10-16T05:22:56.137Z,0.97
2022-10-16T05:25:23.482Z,1.00
2022-10-16T05:27:50.917Z,0.77
2022-10-16T05:30:18.857Z,0.93
2022-10-16T05:32:52.288Z,0.90
2022-10-16T05:35:19.929Z,0.63
2022-10-16T05:37:47.335Z,0.73
2022-10-16T05:40:14.825Z,0.87
2022-10-16T05:42:42.253Z,1.00
2022-10-16T05:45:11.141Z,0.80
2022-10-16T05:47:38.456Z,1.00
2022-10-16T05:50:05.888Z,0.80
2022-10-16T05:52:33.159Z,1.10
2022-10-16T05:55:00.462Z,1.00
2022-10-16T05:57:27.997Z,0.90
2022-10-16T05:59:55.397Z,0.87
2022-10-16T06:02:22.789Z,0.70
2022-10-16T06:04:50.097Z,0.90
2022-10-16T06:07:17.364Z,0.80
2022-10-16T06:09:44.683Z,0.90
2022-10-16T06:12:11.978Z,0.80
2022-10-16T06:14:39.317Z,0.90
2022-10-16T06:17:06.666Z,0.70
2022-10-16T06:19:34.050Z,1.10
2022-10-16T06:22:03.561Z,1.10
2022-10-16T06:24:30.851Z,0.83
2022-10-16T06:26:58.147Z,1.00
2022-10-16T06:29:25.428Z,0.90
2022-10-16T06:31:53.920Z,0.90
2022-10-16T06:34:21.221Z,0.97
2022-10-16T06:36:48.500Z,0.80
2022-10-16T06:39:15.812Z,1.00
2022-10-16T06:41:43.120Z,1.10
2022-10-16T06:44:16.463Z,1.20
2022-10-16T06:46:43.924Z,0.90
2022-10-16T06:49:11.546Z,0.97
2022-10-16T06:51:43.325Z,1.00
2022-10-16T06:54:11.074Z,1.00
2022-10-16T06:56:38.629Z,1.00
2022-10-16T06:59:05.965Z,0.97
2022-10-16T07:01:33.695Z,0.90
2022-10-16T07:04:02.027Z,0.93
2022-10-16T07:06:32.815Z,1.00
2022-10-16T07:09:00.097Z,1.00
2022-10-16T07:11:27.418Z,0.90
2022-10-16T07:13:56.528Z,0.90
2022-10-16T07:16:25.429Z,1.00
2022-10-16T07:18:58.662Z,1.00
2022-10-16T07:21:26.899Z,0.93
2022-10-16T07:24:02.322Z,1.00
2022-10-16T07:26:31.243Z,0.90
2022-10-16T07:28:58.960Z,0.90
2022-10-16T07:31:26.749Z,0.90
2022-10-16T07:33:54.027Z,1.00
2022-10-16T07:36:22.290Z,0.93
2022-10-16T07:38:51.046Z,1.10
2022-10-16T07:41:23.987Z,1.10
2022-10-16T07:43:52.075Z,1.10
2022-10-16T07:46:19.800Z,0.97
2022-10-16T07:48:48.216Z,0.77
2022-10-16T07:51:16.923Z,0.97
2022-10-16T07:53:44.227Z,0.87
2022-10-16T07:56:12.757Z,0.80
2022-10-16T07:58:40.229Z,1.00
2022-10-16T08:01:08.763Z,1.00
2022-10-16T08:03:36.339Z,1.10
2022-10-16T08:06:04.382Z,0.90
2022-10-16T08:08:32.037Z,1.10
2022-10-16T08:10:59.334Z,1.03
2022-10-16T08:13:27.522Z,0.80
2022-10-16T08:15:55.566Z,0.80
2022-10-16T08:18:23.568Z,1.10
2022-10-16T08:20:56.475Z,1.00
2022-10-16T08:23:24.042Z,0.73
2022-10-16T08:25:51.365Z,1.23
2022-10-16T08:28:18.703Z,1.00
2022-10-16T08:30:45.970Z,1.20
2022-10-16T08:33:13.256Z,0.80
2022-10-16T08:35:40.533Z,0.80
2022-10-16T08:38:07.962Z,1.00
2022-10-16T08:40:37.605Z,1.00
2022-10-16T08:43:40.507Z,1.10
2022-10-16T08:46:10.595Z,0.90
2022-10-16T08:48:45.286Z,0.90
2022-10-16T08:51:18.349Z,1.17
2022-10-16T08:53:58.313Z,1.10
2022-10-16T08:56:26.422Z,1.10
2022-10-16T08:58:58.053Z,1.20
2022-10-16T09:01:42.527Z,1.00
2022-10-16T09:04:28.292Z,0.90
2022-10-16T09:06:57.818Z,0.80
2022-10-16T09:09:40.489Z,1.00
2022-10-16T09:12:23.114Z,1.00
2022-10-16T09:14:59.675Z,0.83
2022-10-16T09:17:33.124Z,0.90
2022-10-16T09:20:00.523Z,1.00
2022-10-16T09:22:29.894Z,0.90
2022-10-16T09:25:01.914Z,0.80
2022-10-16T09:27:29.596Z,0.90
2022-10-16T09:29:59.664Z,0.87
2022-10-16T09:32:27.538Z,0.83
2022-10-16T09:34:58.058Z,0.93
2022-10-16T09:37:26.344Z,0.83
2022-10-16T09:39:55.024Z,1.00
2022-10-16T09:42:23.757Z,0.90
2022-10-16T09:44:52.450Z,0.93
2022-10-16T09:47:24.813Z,0.90
2022-10-16T09:50:03.321Z,1.10
2022-10-16T09:52:31.336Z,0.90
2022-10-16T09:55:03.358Z,0.90
2022-10-16T09:57:31.717Z,0.83
2022-10-16T10:00:00.229Z,1.00
2022-10-16T10:02:32.511Z,0.90
2022-10-16T10:04:59.837Z,1.20
2022-10-16T10:07:28.800Z,1.00
2022-10-16T10:09:58.274Z,1.00
2022-10-16T10:12:27.344Z,0.90
2022-10-16T10:14:56.609Z,1.00
2022-10-16T10:17:24.954Z,1.00
2022-10-16T10:19:56.465Z,1.10
2022-10-16T10:22:32.978Z,1.10
2022-10-16T10:25:14.770Z,1.27
2022-10-16T10:27:54.413Z,1.10
2022-10-16T10:30:26.855Z,1.10
2022-10-16T10:33:01.782Z,1.20
2022-10-16T10:35:34.056Z,1.00
2022-10-16T10:38:13.938Z,0.90
2022-10-16T10:40:52.702Z,0.90
2022-10-16T10:43:40.055Z,1.00
2022-10-16T10:46:11.427Z,0.70
2022-10-16T10:48:43.295Z,1.07
2022-10-16T10:51:17.586Z,0.80
2022-10-16T10:54:14.306Z,0.90
2022-10-16T10:57:03.589Z,1.30
2022-10-16T10:59:39.896Z,0.80
2022-10-16T11:02:26.304Z,0.97
2022-10-16T11:05:18.528Z,1.10
2022-10-16T11:07:50.782Z,1.00
2022-10-16T11:10:23.514Z,1.20
2022-10-16T11:12:54.301Z,1.10
2022-10-16T11:15:26.311Z,1.10
2022-10-16T11:18:13.938Z,1.17
2022-10-16T11:20:43.770Z,1.30
2022-10-16T11:23:16.422Z,1.10
2022-10-16T11:25:44.950Z,1.20
2022-10-16T11:28:13.867Z,1.60
2022-10-16T11:31:07.213Z,1.60
2022-10-16T11:33:38.349Z,1.60
2022-10-16T11:36:34.898Z,1.40
2022-10-16T11:39:11.060Z,1.37
2022-10-16T11:41:44.315Z,1.30
2022-10-16T11:44:11.558Z,1.80
2022-10-16T11:46:58.286Z,1.40
2022-10-16T11:49:28.524Z,1.50
2022-10-16T11:52:10.136Z,1.40
2022-10-16T11:54:41.293Z,1.87
2022-10-16T11:57:20.094Z,1.70
2022-10-16T11:59:57.187Z,1.30
2022-10-16T12:02:24.647Z,1.60
2022-10-16T12:04:59.704Z,1.60
2022-10-16T12:07:29.942Z,1.50
2022-10-16T12:10:01.404Z,1.40
2022-10-16T12:12:38.420Z,1.40
2022-10-16T12:15:26.017Z,1.37
2022-10-16T12:18:09.713Z,1.60
2022-10-16T12:20:39.148Z,1.60
2022-10-16T12:23:07.279Z,1.60
2022-10-16T12:25:36.408Z,1.70
2022-10-16T12:28:05.481Z,1.40
2022-10-16T12:30:35.902Z,1.60
2022-10-16T12:33:07.910Z,1.60
2022-10-16T12:35:37.583Z,1.90
2022-10-16T12:38:09.216Z,1.40
2022-10-16T12:40:37.685Z,1.40
2022-10-16T12:43:28.895Z,1.50
2022-10-16T12:46:20.709Z,1.30
2022-10-16T12:49:05.677Z,1.30
2022-10-16T12:51:34.215Z,1.20
2022-10-16T12:54:20.184Z,1.30
2022-10-16T12:57:06.054Z,1.30
2022-10-16T12:59:33.339Z,1.20
2022-10-16T13:02:10.844Z,1.30
2022-10-16T13:04:38.159Z,1.50
2022-10-16T13:07:17.968Z,1.37
2022-10-16T13:09:55.350Z,1.47
2022-10-16T13:12:35.029Z,1.27
2022-10-16T13:15:05.419Z,1.23
2022-10-16T13:17:49.398Z,1.30
2022-10-16T13:20:22.594Z,1.10
2022-10-16T13:23:05.213Z,1.10
2022-10-16T13:25:32.514Z,1.30
2022-10-16T13:28:03.987Z,1.30
2022-10-16T13:30:42.683Z,1.20
2022-10-16T13:33:18.438Z,1.10
2022-10-16T13:35:53.534Z,1.10
2022-10-16T13:38:22.172Z,1.10
2022-10-16T13:41:01.246Z,1.03
2022-10-16T13:43:36.532Z,1.10
2022-10-16T13:46:17.324Z,1.07
2022-10-16T13:48:45.080Z,1.00
2022-10-16T13:51:19.652Z,1.10
2022-10-16T13:53:47.540Z,1.20
2022-10-16T13:56:19.847Z,1.10
2022-10-16T13:58:48.325Z,1.20
2022-10-16T14:01:27.304Z,1.20
2022-10-16T14:04:02.864Z,1.20
2022-10-16T14:06:30.257Z,1.37
2022-10-16T14:09:11.102Z,1.23
2022-10-16T14:11:40.707Z,1.40
2022-10-16T14:14:12.200Z,1.67
2022-10-16T14:16:42.182Z,1.13
2022-10-16T14:19:17.061Z,1.30
2022-10-16T14:21:44.384Z,1.30
2022-10-16T14:24:15.412Z,1.00
2022-10-16T14:26:49.679Z,1.00
2022-10-16T14:29:21.521Z,1.10
2022-10-16T14:32:02.188Z,1.00
2022-10-16T14:34:34.511Z,1.03
2022-10-16T14:39:41.745Z,1.00
2022-10-16T14:42:20.177Z,1.20
2022-10-16T14:44:48.676Z,1.23
2022-10-16T14:47:17.566Z,1.60
2022-10-16T14:49:44.845Z,1.00
2022-10-16T14:52:13.266Z,1.00
2022-10-16T14:54:40.691Z,1.00
2022-10-16T14:57:17.570Z,1.00
2022-10-16T14:59:45.525Z,1.17
2022-10-16T15:02:23.282Z,0.90
2022-10-16T15:04:50.777Z,1.30
2022-10-16T15:07:18.210Z,0.90
2022-10-16T15:09:49.016Z,0.90
2022-10-16T15:12:17.470Z,1.00
2022-10-16T15:14:44.865Z,0.93
2022-10-16T15:17:12.639Z,1.10
2022-10-16T15:19:40.311Z,0.80
2022-10-16T15:22:07.597Z,0.80
2022-10-16T15:24:35.547Z,0.70
2022-10-16T15:27:02.830Z,0.60
2022-10-16T15:29:30.110Z,0.87
2022-10-16T15:31:57.419Z,1.03
2022-10-16T15:34:24.679Z,0.80
2022-10-16T15:36:52.115Z,0.87
2022-10-16T15:39:21.025Z,1.00
2022-10-16T15:41:51.880Z,0.70
2022-10-16T15:44:19.862Z,0.90
2022-10-16T15:46:47.527Z,0.80
2022-10-16T15:49:14.808Z,0.70
2022-10-16T15:51:42.988Z,1.10
2022-10-16T15:54:10.686Z,0.80
2022-10-16T15:56:38.415Z,0.70
2022-10-16T15:59:06.517Z,0.90
2022-10-16T16:01:36.460Z,0.87
2022-10-16T16:04:11.114Z,1.00
2022-10-16T16:06:45.692Z,0.90
2022-10-16T16:09:14.717Z,0.80
2022-10-16T16:11:42.420Z,1.10
2022-10-16T16:14:12.453Z,0.80
2022-10-16T16:16:39.781Z,0.90
2022-10-16T16:19:10.772Z,0.77
2022-10-16T16:21:39.186Z,1.03
2022-10-16T16:24:09.113Z,0.70
2022-10-16T16:26:40.357Z,0.90
2022-10-16T16:29:08.233Z,0.70
2022-10-16T16:31:35.858Z,0.80
2022-10-16T16:34:03.574Z,1.07
2022-10-16T16:36:30.867Z,0.83
2022-10-16T16:38:59.005Z,2.57
2022-10-16T16:41:27.728Z,1.20
2022-10-16T16:43:55.483Z,1.63
2022-10-16T16:46:22.990Z,1.40
2022-10-16T16:48:51.307Z,1.47
2022-10-16T16:51:20.669Z,1.30
2022-10-16T16:53:49.951Z,1.10
2022-10-16T16:56:17.591Z,1.17
2022-10-16T16:58:48.688Z,1.20
2022-10-16T17:01:19.972Z,1.33
2022-10-16T17:03:50.694Z,1.40
2022-10-16T17:06:20.764Z,1.17
2022-10-16T17:08:48.798Z,1.17
2022-10-16T17:11:20.638Z,1.30
2022-10-16T17:13:51.126Z,1.20
2022-10-16T17:16:21.687Z,1.40
2022-10-16T17:18:49.035Z,1.30
2022-10-16T17:21:16.432Z,1.37
2022-10-16T17:23:43.987Z,1.07
2022-10-16T17:26:15.616Z,1.30
2022-10-16T17:28:43.487Z,1.03
2022-10-16T17:31:14.895Z,0.87
2022-10-16T17:33:42.420Z,0.93
2022-10-16T17:36:10.034Z,1.37
2022-10-16T17:38:37.302Z,1.30
2022-10-16T17:41:19.740Z,1.33
2022-10-16T17:43:47.392Z,1.20
2022-10-16T17:46:16.243Z,1.17
2022-10-16T17:48:45.423Z,1.40
2022-10-16T17:51:13.886Z,1.10
2022-10-16T17:53:41.236Z,1.20
2022-10-16T17:56:12.946Z,1.40
2022-10-16T17:58:40.920Z,1.30
2022-10-16T18:01:15.661Z,1.23
2022-10-16T18:03:43.358Z,1.00
2022-10-16T18:06:12.746Z,1.13
2022-10-16T18:08:40.094Z,1.30
2022-10-16T18:11:07.459Z,2.03
2022-10-16T18:13:34.889Z,1.60
2022-10-16T18:16:07.045Z,1.30
2022-10-16T18:18:34.307Z,1.30
2022-10-16T18:21:02.789Z,1.40
2022-10-16T18:23:30.174Z,1.13
2022-10-16T18:25:57.661Z,1.33
2022-10-16T18:28:25.110Z,1.33
2022-10-16T18:31:15.792Z,1.10
2022-10-16T18:33:48.105Z,1.00
2022-10-16T18:36:15.842Z,1.37
2022-10-16T18:38:43.131Z,1.80
2022-10-16T18:41:10.498Z,1.53
2022-10-16T18:43:38.432Z,1.27
2022-10-16T18:46:07.372Z,1.50
2022-10-16T18:48:35.052Z,0.93
2022-10-16T18:51:14.611Z,1.20
2022-10-16T18:53:42.876Z,1.70
2022-10-16T18:56:10.952Z,1.10
2022-10-16T18:58:41.178Z,1.60
2022-10-16T19:01:10.206Z,1.37
2022-10-16T19:03:38.723Z,1.43
2022-10-16T19:06:08.341Z,1.30
2022-10-16T19:08:38.765Z,1.23
2022-10-16T19:11:07.053Z,1.57
2022-10-16T19:13:34.627Z,1.27
2022-10-16T19:16:21.980Z,1.00
2022-10-16T19:18:53.196Z,1.00
2022-10-16T19:21:20.726Z,1.37
2022-10-16T19:23:51.661Z,1.40
2022-10-16T19:26:19.588Z,1.37
2022-10-16T19:28:47.041Z,1.53
2022-10-16T19:31:18.510Z,1.50
2022-10-16T19:33:46.281Z,1.30
2022-10-16T19:36:13.536Z,1.27
2022-10-16T19:38:41.759Z,1.20
2022-10-16T19:41:10.118Z,1.13
2022-10-16T19:43:37.723Z,1.37
2022-10-16T19:46:06.207Z,1.30
2022-10-16T19:48:33.643Z,1.57
2022-10-16T19:51:01.297Z,1.07
2022-10-16T19:53:28.745Z,1.10
2022-10-16T19:55:56.395Z,1.07
2022-10-16T19:58:24.133Z,1.33
2022-10-16T20:00:51.521Z,0.90
2022-10-16T20:03:19.263Z,1.00
2022-10-16T20:05:56.748Z,1.23
2022-10-16T20:08:24.266Z,1.30
2022-10-16T20:10:52.256Z,1.57
2022-10-16T20:13:20.402Z,1.30
2022-10-16T20:15:48.172Z,1.10
2022-10-16T20:18:16.462Z,1.00
2022-10-16T20:20:45.106Z,1.00
2022-10-16T20:23:12.623Z,1.17
2022-10-16T20:25:41.256Z,1.20
2022-10-16T20:28:09.722Z,1.00
2022-10-16T20:30:38.759Z,1.17
2022-10-16T20:33:09.454Z,0.93
2022-10-16T20:35:38.050Z,1.10
2022-10-16T20:38:05.390Z,1.37
2022-10-16T20:40:35.483Z,1.10
2022-10-16T20:43:03.008Z,1.30
2022-10-16T20:45:30.489Z,1.13
2022-10-16T20:47:57.805Z,1.40
2022-10-16T20:50:25.773Z,1.00
2022-10-16T20:52:53.095Z,1.20
2022-10-16T20:55:20.418Z,1.00
2022-10-16T20:57:47.762Z,1.30
2022-10-16T21:00:15.335Z,1.13
2022-10-16T21:02:42.733Z,1.20
2022-10-16T21:05:10.141Z,1.00
2022-10-16T21:07:37.513Z,1.40
2022-10-16T21:10:05.015Z,1.67
2022-10-16T21:12:32.319Z,1.40
2022-10-16T21:15:14.029Z,1.40
2022-10-16T21:17:42.399Z,0.97
2022-10-16T21:20:09.818Z,1.60
2022-10-16T21:22:37.091Z,1.70
2022-10-16T21:25:04.804Z,1.20
2022-10-16T21:27:37.003Z,1.20
2022-10-16T21:30:04.792Z,1.00
2022-10-16T21:32:32.056Z,1.43
2022-10-16T21:34:59.332Z,1.30
2022-10-16T21:37:26.671Z,1.13
2022-10-16T21:39:56.087Z,1.00
2022-10-16T21:42:23.610Z,1.20
2022-10-16T21:44:50.872Z,1.33
2022-10-16T21:47:18.262Z,1.30
2022-10-16T21:49:45.521Z,1.07
2022-10-16T21:52:12.851Z,1.27
2022-10-16T21:54:40.116Z,0.90
2022-10-16T21:57:07.435Z,1.40
2022-10-16T21:59:34.771Z,1.07
2022-10-16T22:02:03.199Z,1.20
2022-10-16T22:04:30.685Z,1.20
2022-10-16T22:06:58.058Z,1.20
2022-10-16T22:09:25.378Z,1.37
2022-10-16T22:11:52.649Z,1.00
2022-10-16T22:14:21.864Z,1.10
2022-10-16T22:16:49.531Z,1.20
2022-10-16T22:19:18.334Z,1.13
2022-10-16T22:21:47.495Z,1.07
2022-10-16T22:24:16.065Z,1.50
2022-10-16T22:26:43.672Z,1.17
2022-10-16T22:29:13.267Z,1.10
2022-10-16T22:31:40.542Z,0.83
2022-10-16T22:34:07.969Z,1.10
2022-10-16T22:36:35.355Z,1.07
2022-10-16T22:39:02.955Z,0.93
2022-10-16T22:41:30.805Z,1.17
2022-10-16T22:43:58.035Z,1.33
2022-10-16T22:46:26.798Z,1.70
2022-10-16T22:48:55.919Z,1.17
2022-10-16T22:51:23.594Z,1.33
2022-10-16T22:53:51.341Z,0.87
2022-10-16T22:56:19.752Z,1.50
2022-10-16T22:58:47.424Z,1.60
2022-10-16T23:01:21.016Z,1.17
2022-10-16T23:03:48.319Z,1.10
2022-10-16T23:06:15.562Z,1.10
2022-10-16T23:08:42.867Z,1.47
2022-10-16T23:11:11.417Z,1.30
2022-10-16T23:13:45.695Z,1.27
2022-10-16T23:16:14.163Z,1.30
2022-10-16T23:18:41.554Z,1.50
2022-10-16T23:21:09.909Z,1.50
2022-10-16T23:23:37.656Z,1.20
2022-10-16T23:26:16.664Z,1.37
2022-10-16T23:28:44.214Z,1.43
2022-10-16T23:31:12.084Z,1.57
2022-10-16T23:33:39.617Z,1.30
2022-10-16T23:36:08.486Z,1.40
2022-10-16T23:38:36.003Z,1.30
2022-10-16T23:41:03.510Z,1.70
2022-10-16T23:43:31.036Z,1.10
2022-10-16T23:45:58.425Z,1.10
2022-10-16T23:48:25.872Z,1.60
2022-10-16T23:50:53.188Z,1.37
2022-10-16T23:53:20.833Z,1.40
2022-10-16T23:55:48.174Z,1.30
2022-10-16T23:58:15.528Z,1.50
